createdAt,value
2023-05-04T00:00:46.375Z,56.30
2023-05-04T00:03:14.586Z,56.30
2023-05-04T00:05:42.774Z,56.40
2023-05-04T00:08:12.629Z,56.40
2023-05-04T00:10:41.256Z,56.50
2023-05-04T00:13:09.386Z,56.60
2023-05-04T00:15:38.011Z,57.20
2023-05-04T00:18:06.077Z,57.30
2023-05-04T00:20:34.188Z,56.80
2023-05-04T00:23:02.703Z,56.80
2023-05-04T00:25:32.141Z,56.90
2023-05-04T00:28:00.659Z,56.90
2023-05-04T00:30:28.681Z,56.90
2023-05-04T00:32:56.754Z,57.00
2023-05-04T00:35:25.260Z,57.10
2023-05-04T00:37:53.778Z,57.20
2023-05-04T00:40:22.154Z,57.30
2023-05-04T00:42:52.024Z,57.30
2023-05-04T00:45:20.233Z,57.40
2023-05-04T00:47:49.816Z,57.40
2023-05-04T00:50:18.050Z,57.40
2023-05-04T00:52:48.355Z,57.40
2023-05-04T00:55:17.276Z,57.60
2023-05-04T00:57:45.716Z,57.50
2023-05-04T01:00:15.928Z,57.70
2023-05-04T01:02:44.150Z,57.70
2023-05-04T01:05:14.023Z,57.80
2023-05-04T01:07:53.072Z,57.90
2023-05-04T01:10:27.261Z,58.10
2023-05-04T01:13:02.481Z,58.10
2023-05-04T01:15:33.163Z,58.10
2023-05-04T01:18:01.370Z,58.20
2023-05-04T01:20:30.139Z,58.10
2023-05-04T01:23:00.604Z,58.20
2023-05-04T01:25:33.701Z,58.40
2023-05-04T01:28:10.170Z,58.40
2023-05-04T01:30:41.506Z,58.60
2023-05-04T01:33:10.153Z,58.40
2023-05-04T01:35:38.652Z,58.60
2023-05-04T01:38:08.667Z,58.60
2023-05-04T01:40:37.189Z,58.70
2023-05-04T01:43:05.277Z,58.70
2023-05-04T01:45:33.848Z,59.40
2023-05-04T01:48:01.950Z,58.90
2023-05-04T01:50:30.560Z,58.90
2023-05-04T01:52:58.603Z,59.00
2023-05-04T01:55:32.040Z,59.00
2023-05-04T01:58:00.651Z,59.30
2023-05-04T02:00:29.809Z,59.20
2023-05-04T02:02:57.971Z,59.30
2023-05-04T02:05:26.618Z,59.30
2023-05-04T02:07:55.127Z,59.40
2023-05-04T02:10:23.200Z,59.40
2023-05-04T02:12:53.232Z,59.40
2023-05-04T02:15:22.104Z,59.40
2023-05-04T02:17:50.812Z,59.50
2023-05-04T02:20:19.073Z,59.50
2023-05-04T02:22:47.585Z,59.60
2023-05-04T02:25:16.424Z,59.60
2023-05-04T02:27:44.512Z,59.70
2023-05-04T02:30:15.798Z,59.80
2023-05-04T02:32:44.382Z,59.90
2023-05-04T02:35:12.989Z,59.80
2023-05-04T02:37:41.023Z,59.80
2023-05-04T02:40:10.618Z,59.90
2023-05-04T02:42:38.692Z,60.10
2023-05-04T02:45:08.918Z,60.10
2023-05-04T02:47:38.893Z,60.20
2023-05-04T02:50:08.550Z,60.20
2023-05-04T02:52:37.445Z,60.20
2023-05-04T02:55:07.210Z,60.30
2023-05-04T02:57:35.249Z,60.30
2023-05-04T03:00:04.254Z,60.50
2023-05-04T03:02:32.971Z,60.70
2023-05-04T03:05:03.362Z,60.70
2023-05-04T03:07:31.480Z,60.90
2023-05-04T03:10:00.079Z,60.90
2023-05-04T03:12:28.710Z,61.10
2023-05-04T03:14:56.954Z,61.10
2023-05-04T03:17:25.037Z,61.10
2023-05-04T03:19:53.829Z,61.10
2023-05-04T03:22:23.259Z,61.10
2023-05-04T03:24:52.486Z,61.40
2023-05-04T03:27:20.530Z,61.40
2023-05-04T03:29:48.672Z,61.40
2023-05-04T03:32:17.450Z,61.50
2023-05-04T03:34:46.323Z,61.40
2023-05-04T03:37:14.850Z,61.50
2023-05-04T03:39:44.747Z,61.60
2023-05-04T03:42:13.172Z,61.60
2023-05-04T03:44:41.691Z,61.60
2023-05-04T03:47:10.231Z,61.60
2023-05-04T03:49:38.327Z,61.60
2023-05-04T03:52:06.764Z,61.80
2023-05-04T03:54:35.313Z,61.90
2023-05-04T03:57:04.742Z,62.00
2023-05-04T03:59:33.525Z,62.20
2023-05-04T04:02:01.740Z,62.30
2023-05-04T04:04:30.452Z,62.30
2023-05-04T04:06:58.550Z,62.50
2023-05-04T04:09:27.080Z,62.60
2023-05-04T04:11:55.627Z,62.70
2023-05-04T04:14:25.063Z,62.70
2023-05-04T04:16:53.638Z,62.80
2023-05-04T04:19:22.146Z,62.70
2023-05-04T04:21:50.290Z,62.90
2023-05-04T04:24:19.923Z,62.90
2023-05-04T04:26:48.136Z,63.00
2023-05-04T04:29:16.834Z,63.00
2023-05-04T04:31:46.307Z,63.10
2023-05-04T04:34:14.367Z,63.30
2023-05-04T04:36:42.500Z,63.40
2023-05-04T04:39:11.183Z,63.40
2023-05-04T04:41:39.486Z,63.50
2023-05-04T04:44:07.555Z,63.60
2023-05-04T04:46:36.131Z,63.80
2023-05-04T04:49:05.608Z,63.80
2023-05-04T04:51:34.430Z,64.10
2023-05-04T04:54:02.517Z,64.20
2023-05-04T04:56:31.385Z,64.20
2023-05-04T04:59:00.079Z,64.40
2023-05-04T05:01:29.795Z,64.60
2023-05-04T05:03:58.526Z,64.60
2023-05-04T05:06:27.958Z,64.60
2023-05-04T05:08:56.682Z,64.80
2023-05-04T05:11:24.716Z,64.90
2023-05-04T05:13:53.234Z,65.00
2023-05-04T05:16:22.039Z,65.20
2023-05-04T05:18:50.139Z,65.40
2023-05-04T05:21:18.669Z,65.50
2023-05-04T05:23:48.148Z,65.80
2023-05-04T05:26:16.716Z,66.10
2023-05-04T05:28:44.789Z,66.10
2023-05-04T05:31:13.323Z,66.10
2023-05-04T05:33:42.361Z,66.10
2023-05-04T05:36:11.187Z,66.20
2023-05-04T05:38:39.239Z,66.40
2023-05-04T05:41:10.202Z,66.50
2023-05-04T05:43:38.732Z,66.60
2023-05-04T05:46:08.000Z,66.80
2023-05-04T05:48:36.104Z,66.90
2023-05-04T05:51:04.738Z,67.00
2023-05-04T05:53:33.283Z,67.30
2023-05-04T05:56:01.331Z,67.40
2023-05-04T05:58:30.723Z,67.50
2023-05-04T06:00:58.796Z,67.60
2023-05-04T06:03:27.046Z,67.50
2023-05-04T06:05:55.812Z,67.50
2023-05-04T06:08:23.840Z,67.40
2023-05-04T06:10:52.639Z,67.70
2023-05-04T06:13:20.677Z,67.70
2023-05-04T06:15:54.642Z,67.90
2023-05-04T06:18:23.491Z,67.80
2023-05-04T06:20:58.361Z,67.60
2023-05-04T06:23:27.658Z,67.50
2023-05-04T06:25:56.128Z,67.20
2023-05-04T06:28:24.815Z,66.90
2023-05-04T06:30:54.729Z,66.60
2023-05-04T06:33:23.310Z,66.40
2023-05-04T06:35:51.921Z,65.90
2023-05-04T06:38:20.470Z,65.90
2023-05-04T06:40:48.697Z,65.80
2023-05-04T06:43:17.233Z,65.70
2023-05-04T06:45:45.342Z,65.60
2023-05-04T06:48:15.279Z,65.40
2023-05-04T06:50:43.911Z,65.30
2023-05-04T06:53:12.830Z,65.10
2023-05-04T06:55:41.477Z,65.10
2023-05-04T06:58:09.587Z,65.10
2023-05-04T07:00:38.376Z,65.00
2023-05-04T07:03:07.036Z,65.00
2023-05-04T07:05:37.686Z,65.00
2023-05-04T07:08:06.864Z,65.00
2023-05-04T07:10:34.946Z,64.70
2023-05-04T07:13:04.024Z,64.70
2023-05-04T07:15:34.270Z,64.50
2023-05-04T07:18:02.505Z,64.30
2023-05-04T07:20:31.121Z,64.40
2023-05-04T07:23:00.533Z,64.30
2023-05-04T07:25:28.993Z,64.30
2023-05-04T07:27:57.068Z,64.10
2023-05-04T07:30:26.166Z,64.10
2023-05-04T07:32:54.768Z,64.10
2023-05-04T07:35:23.463Z,63.90
2023-05-04T07:37:52.148Z,63.80
2023-05-04T07:40:21.620Z,63.70
2023-05-04T07:42:50.159Z,63.60
2023-05-04T07:45:18.655Z,63.50
2023-05-04T07:47:46.770Z,63.50
2023-05-04T07:50:15.453Z,63.20
2023-05-04T07:52:46.027Z,63.10
2023-05-04T07:55:14.561Z,63.20
2023-05-04T07:57:43.942Z,63.00
2023-05-04T08:00:13.574Z,62.60
2023-05-04T08:02:42.046Z,62.70
2023-05-04T08:05:11.300Z,62.70
2023-05-04T08:07:39.381Z,62.60
2023-05-04T08:10:09.286Z,62.50
2023-05-04T08:12:37.334Z,62.30
2023-05-04T08:15:08.028Z,62.30
2023-05-04T08:17:38.419Z,62.20
2023-05-04T08:20:08.129Z,62.00
2023-05-04T08:22:36.774Z,61.80
2023-05-04T08:25:05.283Z,61.90
2023-05-04T08:27:34.068Z,61.80
2023-05-04T08:30:02.239Z,61.80
2023-05-04T08:32:33.389Z,61.80
2023-05-04T08:35:02.146Z,61.80
2023-05-04T08:37:30.872Z,61.80
2023-05-04T08:39:58.955Z,61.80
2023-05-04T08:42:30.878Z,61.60
2023-05-04T08:44:59.368Z,61.70
2023-05-04T08:47:29.566Z,61.80
2023-05-04T08:49:59.053Z,61.80
2023-05-04T08:52:28.145Z,61.70
2023-05-04T08:54:57.615Z,61.80
2023-05-04T08:57:27.563Z,61.70
2023-05-04T08:59:56.925Z,61.60
2023-05-04T09:02:26.565Z,61.60
2023-05-04T09:04:56.150Z,61.70
2023-05-04T09:07:25.717Z,61.70
2023-05-04T09:09:54.620Z,61.50
2023-05-04T09:12:22.718Z,61.40
2023-05-04T09:14:51.390Z,61.40
2023-05-04T09:17:25.780Z,61.50
2023-05-04T09:20:01.538Z,61.40
2023-05-04T09:22:31.541Z,61.10
2023-05-04T09:25:09.145Z,61.00
2023-05-04T09:27:37.167Z,60.90
2023-05-04T09:30:06.399Z,60.80
2023-05-04T09:32:38.814Z,60.80
2023-05-04T09:35:10.766Z,60.70
2023-05-04T09:37:47.538Z,60.50
2023-05-04T09:40:15.954Z,60.50
2023-05-04T09:42:44.732Z,60.60
2023-05-04T09:45:13.700Z,60.50
2023-05-04T09:47:44.785Z,60.40
2023-05-04T09:50:20.129Z,60.00
2023-05-04T09:52:51.563Z,60.20
2023-05-04T09:55:21.466Z,60.20
2023-05-04T09:57:51.489Z,60.00
2023-05-04T10:00:20.937Z,60.00
2023-05-04T10:02:50.254Z,59.90
2023-05-04T10:05:22.139Z,59.90
2023-05-04T10:07:52.799Z,59.60
2023-05-04T10:10:21.334Z,59.40
2023-05-04T10:12:49.880Z,59.30
2023-05-04T10:15:19.199Z,59.20
2023-05-04T10:17:59.834Z,59.70
2023-05-04T10:20:54.081Z,58.80
2023-05-04T10:23:55.324Z,58.10
2023-05-04T10:26:48.702Z,58.40
2023-05-04T10:29:23.822Z,58.20
2023-05-04T10:31:53.889Z,58.30
2023-05-04T10:34:27.404Z,58.30
2023-05-04T10:36:55.686Z,58.00
2023-05-04T10:39:26.887Z,58.10
2023-05-04T10:42:02.885Z,58.00
2023-05-04T10:44:32.636Z,57.50
2023-05-04T10:47:02.508Z,57.50
2023-05-04T10:49:31.292Z,57.20
2023-05-04T10:52:10.820Z,57.20
2023-05-04T10:54:41.588Z,56.70
2023-05-04T10:57:11.782Z,57.70
2023-05-04T10:59:41.319Z,56.90
2023-05-04T11:02:10.042Z,56.90
2023-05-04T11:04:39.356Z,56.10
2023-05-04T11:07:08.864Z,56.90
2023-05-04T11:09:39.616Z,56.20
2023-05-04T11:12:11.048Z,55.90
2023-05-04T11:14:43.326Z,55.80
2023-05-04T11:19:51.636Z,55.40
2023-05-04T11:22:20.715Z,55.00
2023-05-04T11:24:50.225Z,55.20
2023-05-04T11:27:29.808Z,55.20
2023-05-04T11:29:59.439Z,54.60
2023-05-04T11:32:38.083Z,54.70
2023-05-04T11:35:10.043Z,54.20
2023-05-04T11:37:41.912Z,54.30
2023-05-04T11:40:13.739Z,53.60
2023-05-04T11:42:43.482Z,53.90
2023-05-04T11:45:15.191Z,53.90
2023-05-04T11:47:44.345Z,53.90
2023-05-04T11:50:15.087Z,53.80
2023-05-04T11:52:43.770Z,53.40
2023-05-04T11:55:15.155Z,53.60
2023-05-04T11:57:43.228Z,52.70
2023-05-04T12:00:12.650Z,53.30
2023-05-04T12:02:41.632Z,53.10
2023-05-04T12:05:14.506Z,52.70
2023-05-04T12:07:43.127Z,52.90
2023-05-04T12:10:12.675Z,52.80
2023-05-04T12:12:41.385Z,52.90
2023-05-04T12:15:11.305Z,52.80
2023-05-04T12:17:43.353Z,52.40
2023-05-04T12:20:12.265Z,52.00
2023-05-04T12:22:41.064Z,52.00
2023-05-04T12:25:11.243Z,51.90
2023-05-04T12:27:44.234Z,50.90
2023-05-04T12:30:13.486Z,50.00
2023-05-04T12:32:42.228Z,50.40
2023-05-04T12:35:11.525Z,50.60
2023-05-04T12:37:39.581Z,50.40
2023-05-04T12:40:27.231Z,50.40
2023-05-04T12:42:57.947Z,50.40
2023-05-04T12:45:26.487Z,50.30
2023-05-04T12:47:55.001Z,50.30
2023-05-04T12:50:23.751Z,50.40
2023-05-04T12:52:51.837Z,49.90
2023-05-04T12:55:20.452Z,49.80
2023-05-04T12:57:48.985Z,48.80
2023-05-04T13:00:19.729Z,49.10
2023-05-04T13:02:47.935Z,48.90
2023-05-04T13:05:17.390Z,48.80
2023-05-04T13:07:45.967Z,48.60
2023-05-04T13:10:14.509Z,48.30
2023-05-04T13:12:44.741Z,48.10
2023-05-04T13:15:14.712Z,47.30
2023-05-04T13:17:44.451Z,47.20
2023-05-04T13:20:13.885Z,47.00
2023-05-04T13:22:42.879Z,46.60
2023-05-04T13:25:11.580Z,46.40
2023-05-04T13:27:39.668Z,46.60
2023-05-04T13:30:09.627Z,46.20
2023-05-04T13:32:37.889Z,45.90
2023-05-04T13:35:09.099Z,45.80
2023-05-04T13:37:38.242Z,45.60
2023-05-04T13:40:07.230Z,44.80
2023-05-04T13:42:37.172Z,44.80
2023-05-04T13:45:06.821Z,44.80
2023-05-04T13:47:37.407Z,44.20
2023-05-04T13:50:07.964Z,44.70
2023-05-04T13:52:36.323Z,42.90
2023-05-04T13:55:05.422Z,43.30
2023-05-04T13:57:33.722Z,43.50
2023-05-04T14:00:07.699Z,43.10
2023-05-04T14:02:36.489Z,44.00
2023-05-04T14:05:05.380Z,44.00
2023-05-04T14:07:35.795Z,43.80
2023-05-04T14:10:04.713Z,43.50
2023-05-04T14:12:32.933Z,44.00
2023-05-04T14:15:01.426Z,43.70
2023-05-04T14:17:30.005Z,43.90
2023-05-04T14:19:59.007Z,43.90
2023-05-04T14:22:27.639Z,42.30
2023-05-04T14:24:57.233Z,41.80
2023-05-04T14:27:25.769Z,42.00
2023-05-04T14:29:54.406Z,42.20
2023-05-04T14:32:22.439Z,41.50
2023-05-04T14:34:51.650Z,41.30
2023-05-04T14:37:20.683Z,42.10
2023-05-04T14:39:48.827Z,41.80
2023-05-04T14:42:18.342Z,41.40
2023-05-04T14:44:46.848Z,41.70
2023-05-04T14:47:14.947Z,40.90
2023-05-04T14:49:43.470Z,41.90
2023-05-04T14:52:12.114Z,41.70
2023-05-04T14:54:40.147Z,42.60
2023-05-04T14:57:09.569Z,40.90
2023-05-04T14:59:40.190Z,41.30
2023-05-04T15:02:09.256Z,40.00
2023-05-04T15:04:37.617Z,40.50
2023-05-04T15:07:06.477Z,41.10
2023-05-04T15:09:35.039Z,40.30
2023-05-04T15:12:03.930Z,40.60
2023-05-04T15:14:31.973Z,39.30
2023-05-04T15:17:01.884Z,39.90
2023-05-04T15:19:30.397Z,39.90
2023-05-04T15:21:58.426Z,40.00
2023-05-04T15:24:26.939Z,40.50
2023-05-04T15:26:54.982Z,39.50
2023-05-04T15:29:23.748Z,40.10
2023-05-04T15:31:52.072Z,39.80
2023-05-04T15:34:22.061Z,39.60
2023-05-04T15:36:50.116Z,38.80
2023-05-04T15:39:18.616Z,38.10
2023-05-04T15:41:47.302Z,38.80
2023-05-04T15:44:15.360Z,39.80
2023-05-04T15:46:44.784Z,37.80
2023-05-04T15:49:13.374Z,39.00
2023-05-04T15:51:42.985Z,39.10
2023-05-04T15:54:11.486Z,38.00
2023-05-04T15:56:39.507Z,38.50
2023-05-04T15:59:08.177Z,38.00
2023-05-04T16:01:37.483Z,38.20
2023-05-04T16:04:06.528Z,37.20
2023-05-04T16:06:34.587Z,36.90
2023-05-04T16:09:04.572Z,37.60
2023-05-04T16:11:33.216Z,36.40
2023-05-04T16:14:01.774Z,37.70
2023-05-04T16:16:30.323Z,38.10
2023-05-04T16:18:58.951Z,38.40
2023-05-04T16:21:27.000Z,38.20
2023-05-04T16:23:55.617Z,37.70
2023-05-04T16:26:25.760Z,37.90
2023-05-04T16:28:53.977Z,37.00
2023-05-04T16:31:22.574Z,36.90
2023-05-04T16:33:50.657Z,38.50
2023-05-04T16:36:19.194Z,37.60
2023-05-04T16:38:49.851Z,37.20
2023-05-04T16:41:19.307Z,36.80
2023-05-04T16:43:49.100Z,37.80
2023-05-04T16:46:17.943Z,36.90
2023-05-04T16:48:46.015Z,36.00
2023-05-04T16:51:14.524Z,36.90
2023-05-04T16:53:42.572Z,36.60
2023-05-04T16:56:18.800Z,37.20
2023-05-04T16:58:48.291Z,38.10
2023-05-04T17:01:16.978Z,37.10
2023-05-04T17:03:45.640Z,38.10
2023-05-04T17:06:13.713Z,37.70
2023-05-04T17:08:41.832Z,37.60
2023-05-04T17:11:10.346Z,37.90
2023-05-04T17:13:38.951Z,38.50
2023-05-04T17:16:09.965Z,38.60
2023-05-04T17:18:38.022Z,37.60
2023-05-04T17:21:06.801Z,38.10
2023-05-04T17:23:35.118Z,37.90
2023-05-04T17:26:04.683Z,38.20
2023-05-04T17:28:32.765Z,38.00
2023-05-04T17:31:01.280Z,38.80
2023-05-04T17:33:30.908Z,38.60
2023-05-04T17:35:59.451Z,38.30
2023-05-04T17:38:27.520Z,39.00
2023-05-04T17:40:56.523Z,39.00
2023-05-04T17:43:24.618Z,39.20
2023-05-04T17:45:55.530Z,39.30
2023-05-04T17:48:24.546Z,38.80
2023-05-04T17:50:54.003Z,39.40
2023-05-04T17:53:22.069Z,39.80
2023-05-04T17:55:50.594Z,39.80
2023-05-04T17:58:18.640Z,39.60
2023-05-04T18:00:47.162Z,40.00
2023-05-04T18:03:15.284Z,39.90
2023-05-04T18:05:43.814Z,40.00
2023-05-04T18:08:13.834Z,40.00
2023-05-04T18:10:42.047Z,40.50
2023-05-04T18:13:10.634Z,40.20
2023-05-04T18:15:38.937Z,40.40
2023-05-04T18:18:08.539Z,41.00
2023-05-04T18:20:36.587Z,41.10
2023-05-04T18:23:06.173Z,41.30
2023-05-04T18:25:37.923Z,41.30
2023-05-04T18:28:08.381Z,40.70
2023-05-04T18:30:36.891Z,40.40
2023-05-04T18:33:05.070Z,40.60
2023-05-04T18:35:33.159Z,40.20
2023-05-04T18:38:01.319Z,40.20
2023-05-04T18:40:29.949Z,40.20
2023-05-04T18:42:59.372Z,40.10
2023-05-04T18:45:28.675Z,40.20
2023-05-04T18:47:56.707Z,39.90
2023-05-04T18:50:25.246Z,40.50
2023-05-04T18:52:54.117Z,41.00
2023-05-04T18:55:22.917Z,40.40
2023-05-04T18:57:51.568Z,40.00
2023-05-04T19:00:22.154Z,40.00
2023-05-04T19:02:51.158Z,39.60
2023-05-04T19:05:19.269Z,39.90
2023-05-04T19:07:47.848Z,40.00
2023-05-04T19:10:16.047Z,40.00
2023-05-04T19:12:44.392Z,40.10
2023-05-04T19:15:13.595Z,40.30
2023-05-04T19:17:43.005Z,40.00
2023-05-04T19:20:11.726Z,40.00
2023-05-04T19:22:39.969Z,39.90
2023-05-04T19:25:11.113Z,40.10
2023-05-04T19:27:40.315Z,40.30
2023-05-04T19:30:09.955Z,40.60
2023-05-04T19:32:39.237Z,40.30
2023-05-04T19:35:09.532Z,40.40
2023-05-04T19:37:37.731Z,40.00
2023-05-04T19:40:06.973Z,39.90
2023-05-04T19:42:35.563Z,39.90
2023-05-04T19:45:05.463Z,40.00
2023-05-04T19:47:34.448Z,40.20
2023-05-04T19:50:02.524Z,40.20
2023-05-04T19:52:34.776Z,40.20
2023-05-04T19:55:03.600Z,40.40
2023-05-04T19:57:31.875Z,40.70
2023-05-04T20:00:00.545Z,40.70
2023-05-04T20:02:28.969Z,40.80
2023-05-04T20:04:57.224Z,40.40
2023-05-04T20:07:27.398Z,40.70
2023-05-04T20:09:56.934Z,40.90
2023-05-04T20:12:26.901Z,40.90
2023-05-04T20:14:55.389Z,41.60
2023-05-04T20:17:24.071Z,41.00
2023-05-04T20:19:52.348Z,41.20
2023-05-04T20:22:20.555Z,41.30
2023-05-04T20:24:48.676Z,41.40
2023-05-04T20:27:19.592Z,41.60
2023-05-04T20:29:47.713Z,41.30
2023-05-04T20:32:17.033Z,41.40
2023-05-04T20:34:45.203Z,41.70
2023-05-04T20:37:13.283Z,41.80
2023-05-04T20:39:41.788Z,42.00
2023-05-04T20:42:10.324Z,42.00
2023-05-04T20:44:39.763Z,41.80
2023-05-04T20:47:08.348Z,42.00
2023-05-04T20:49:36.871Z,42.20
2023-05-04T20:52:05.150Z,42.20
2023-05-04T20:54:33.780Z,42.20
2023-05-04T20:57:02.539Z,42.30
2023-05-04T20:59:31.155Z,42.20
2023-05-04T21:02:00.665Z,42.30
2023-05-04T21:04:29.187Z,42.60
2023-05-04T21:06:58.242Z,42.70
2023-05-04T21:09:27.085Z,42.60
2023-05-04T21:11:55.143Z,42.70
2023-05-04T21:14:23.175Z,42.80
2023-05-04T21:16:51.263Z,42.60
2023-05-04T21:19:20.744Z,42.90
2023-05-04T21:21:49.346Z,43.20
2023-05-04T21:24:17.988Z,43.10
2023-05-04T21:26:46.286Z,43.30
2023-05-04T21:29:15.521Z,43.40
2023-05-04T21:31:43.649Z,43.40
2023-05-04T21:34:12.307Z,43.30
2023-05-04T21:36:44.404Z,43.30
2023-05-04T21:39:13.066Z,43.90
2023-05-04T21:41:41.595Z,44.00
2023-05-04T21:44:09.626Z,43.90
2023-05-04T21:46:38.173Z,44.10
2023-05-04T21:49:06.234Z,44.30
2023-05-04T21:51:34.810Z,44.50
2023-05-04T21:54:04.871Z,44.60
2023-05-04T21:56:33.429Z,44.60
2023-05-04T21:59:01.503Z,44.80
2023-05-04T22:01:29.587Z,44.90
2023-05-04T22:03:58.228Z,45.10
2023-05-04T22:06:27.203Z,45.10
2023-05-04T22:08:55.696Z,45.10
2023-05-04T22:11:25.800Z,45.20
2023-05-04T22:13:54.759Z,45.40
2023-05-04T22:16:22.881Z,45.50
2023-05-04T22:18:51.859Z,45.60
2023-05-04T22:21:19.957Z,46.20
2023-05-04T22:23:48.481Z,45.60
2023-05-04T22:26:17.031Z,45.80
2023-05-04T22:28:46.448Z,45.70
2023-05-04T22:31:14.539Z,45.90
2023-05-04T22:33:43.177Z,45.90
2023-05-04T22:36:13.023Z,46.60
2023-05-04T22:38:41.526Z,46.00
2023-05-04T22:41:09.544Z,46.00
2023-05-04T22:43:38.183Z,45.50
2023-05-04T22:46:07.623Z,46.20
2023-05-04T22:48:36.131Z,46.30
2023-05-04T22:51:04.172Z,46.30
2023-05-04T22:53:32.794Z,46.30
2023-05-04T22:56:00.884Z,46.30
2023-05-04T22:58:29.603Z,46.30
2023-05-04T23:00:57.676Z,46.30
2023-05-04T23:03:27.736Z,46.50
2023-05-04T23:05:59.011Z,46.60
2023-05-04T23:08:27.746Z,46.60
2023-05-04T23:10:56.238Z,46.50
2023-05-04T23:13:24.439Z,46.50
2023-05-04T23:15:53.748Z,46.60
2023-05-04T23:18:21.840Z,46.60
2023-05-04T23:20:51.910Z,46.60
2023-05-04T23:23:19.952Z,46.70
2023-05-04T23:25:48.460Z,46.70
2023-05-04T23:28:16.957Z,46.80
2023-05-04T23:30:45.459Z,46.90
2023-05-04T23:33:13.471Z,47.20
2023-05-04T23:35:42.242Z,47.10
2023-05-04T23:38:12.161Z,47.10
2023-05-04T23:40:40.231Z,47.20
2023-05-04T23:43:08.735Z,47.30
2023-05-04T23:45:36.800Z,47.30
2023-05-04T23:48:06.056Z,47.40
2023-05-04T23:50:34.864Z,47.50
2023-05-04T23:53:02.948Z,47.70
2023-05-04T23:55:32.850Z,47.70
2023-05-04T23:58:01.197Z,47.90
